Time;durP1;ratioP1;P1;durP2;ratioP2;P2;SDS_P1;SDS_P2;PMS_P1;PMS_P2;Temp;Humidity;BMP_temperature;BMP_pressure;BME280_temperature;BME280_humidity;BME280_pressure;Samples;Min_cycle;Max_cycle;Signal;HPM_P1;HPM_P2
2022/11/26 00:02:22;;;;;;;15.40;8.27;;;;;;;;;;5053231;28;20107;-82
2022/11/26 00:04:49;;;;;;;23.88;8.20;;;;;;;;;;5052547;28;20049;-82
2022/11/26 00:07:17;;;;;;;21.33;8.13;;;;;;;;;;5054831;28;20049;-84
2022/11/26 00:09:44;;;;;;;18.00;8.10;;;;;;;;;;5056415;28;20140;-83
2022/11/26 00:12:22;;;;;;;21.52;8.40;;;;;;;;;;5054650;28;20063;-81
2022/11/26 00:14:48;;;;;;;16.40;7.47;;;;;;;;;;5053412;28;20170;-81
2022/11/26 00:17:15;;;;;;;17.60;7.85;;;;;;;;;;5052499;28;20041;-82
2022/11/26 00:19:42;;;;;;;22.05;8.68;;;;;;;;;;5052189;28;20045;-83
2022/11/26 00:22:29;;;;;;;20.58;8.70;;;;;;;;;;5051730;28;20486;-81
2022/11/26 00:24:55;;;;;;;20.20;7.95;;;;;;;;;;5052543;28;20102;-80
2022/11/26 00:27:24;;;;;;;19.55;8.70;;;;;;;;;;5053829;28;20049;-83
2022/11/26 00:29:51;;;;;;;21.90;9.05;;;;;;;;;;5053619;28;20064;-81
2022/11/26 00:32:19;;;;;;;23.65;8.35;;;;;;;;;;5051593;28;20045;-79
2022/11/26 00:34:45;;;;;;;23.08;8.65;;;;;;;;;;5053876;28;20135;-82
2022/11/26 00:37:24;;;;;;;24.60;8.82;;;;;;;;;;5053589;28;20136;-82
2022/11/26 00:39:50;;;;;;;22.05;8.60;;;;;;;;;;5051334;28;20202;-82
2022/11/26 00:42:17;;;;;;;18.42;8.65;;;;;;;;;;5051383;28;20052;-82
2022/11/26 00:44:43;;;;;;;24.20;8.32;;;;;;;;;;5052932;28;20052;-83
2022/11/26 00:47:10;;;;;;;25.67;8.85;;;;;;;;;;5055661;28;20065;-84
2022/11/26 00:49:36;;;;;;;20.48;8.88;;;;;;;;;;5058594;28;20049;-81
2022/11/26 00:52:03;;;;;;;20.95;8.15;;;;;;;;;;5059979;28;20076;-81
2022/11/26 00:54:30;;;;;;;21.33;8.45;;;;;;;;;;5059005;28;20603;-82
2022/11/26 00:56:56;;;;;;;19.25;8.57;;;;;;;;;;5061397;28;20045;-83
2022/11/26 00:59:23;;;;;;;17.00;8.55;;;;;;;;;;5059589;28;20079;-83
2022/11/26 01:01:52;;;;;;;22.15;7.97;;;;;;;;;;5061902;28;20229;-82
2022/11/26 01:04:19;;;;;;;25.35;8.30;;;;;;;;;;5063224;28;20049;-83
2022/11/26 01:06:45;;;;;;;19.65;8.10;;;;;;;;;;5065444;28;20045;-84
2022/11/26 01:09:16;;;;;;;21.38;8.43;;;;;;;;;;5066038;28;20056;-82
2022/11/26 01:11:43;;;;;;;23.05;8.23;;;;;;;;;;5062064;28;20049;-81
2022/11/26 01:14:13;;;;;;;21.02;8.38;;;;;;;;;;5052078;28;20059;-84
2022/11/26 01:16:41;;;;;;;26.65;8.48;;;;;;;;;;5052409;28;20080;-79
2022/11/26 01:19:09;;;;;;;22.38;8.23;;;;;;;;;;5049874;28;20072;-83
2022/11/26 01:21:35;;;;;;;21.70;8.00;;;;;;;;;;5056201;28;20052;-82
2022/11/26 01:24:01;;;;;;;23.92;8.43;;;;;;;;;;5055601;28;20141;-81
2022/11/26 01:26:31;;;;;;;17.63;7.85;;;;;;;;;;5057148;28;20114;-83
2022/11/26 01:28:57;;;;;;;23.88;7.93;;;;;;;;;;5057074;28;20331;-81
2022/11/26 01:31:25;;;;;;;23.73;7.93;;;;;;;;;;5055449;28;20048;-83
2022/11/26 01:33:52;;;;;;;17.52;7.72;;;;;;;;;;5054413;28;20075;-82
2022/11/26 01:36:32;;;;;;;20.40;7.68;;;;;;;;;;5056017;28;20053;-81
2022/11/26 01:39:12;;;;;;;18.00;8.10;;;;;;;;;;5056697;28;20064;-83
2022/11/26 01:41:51;;;;;;;18.98;7.53;;;;;;;;;;5056828;28;20048;-81
2022/11/26 01:44:19;;;;;;;19.67;7.85;;;;;;;;;;5056400;28;20525;-82
2022/11/26 01:46:46;;;;;;;21.60;8.60;;;;;;;;;;5055964;28;20537;-83
2022/11/26 01:49:17;;;;;;;19.40;7.60;;;;;;;;;;5057032;28;20099;-81
2022/11/26 01:51:44;;;;;;;20.17;7.88;;;;;;;;;;5059956;28;20052;-81
2022/11/26 01:54:11;;;;;;;18.40;7.38;;;;;;;;;;5055706;28;20060;-82
2022/11/26 01:56:39;;;;;;;21.70;7.68;;;;;;;;;;5055857;28;20470;-82
2022/11/26 01:59:09;;;;;;;21.15;7.65;;;;;;;;;;5055836;28;20045;-83
2022/11/26 02:01:35;;;;;;;23.55;8.18;;;;;;;;;;5055303;28;20041;-81
2022/11/26 02:04:18;;;;;;;17.10;7.68;;;;;;;;;;5053016;28;20095;-82
2022/11/26 02:06:46;;;;;;;17.27;7.53;;;;;;;;;;5055876;28;20112;-81
2022/11/26 02:09:13;;;;;;;22.77;7.75;;;;;;;;;;5055001;28;20053;-81
2022/11/26 02:11:40;;;;;;;24.67;8.45;;;;;;;;;;5055484;28;20059;-80
2022/11/26 02:14:09;;;;;;;22.65;9.00;;;;;;;;;;5054781;28;20056;-83
2022/11/26 02:17:04;;;;;;;19.25;8.60;;;;;;;;;;5055142;28;20078;-83
2022/11/26 02:19:37;;;;;;;22.10;8.25;;;;;;;;;;5016900;28;20334;-81
2022/11/26 02:22:11;;;;;;;25.40;8.63;;;;;;;;;;5056174;28;20049;-82
2022/11/26 02:24:40;;;;;;;26.73;9.10;;;;;;;;;;5057709;28;20084;-81
2022/11/26 02:27:06;;;;;;;23.13;10.25;;;;;;;;;;5062884;28;20053;-80
2022/11/26 02:29:52;;;;;;;25.02;9.23;;;;;;;;;;5060699;28;20504;-82
2022/11/26 02:32:19;;;;;;;;;;;;;;;;;;5056737;28;20082;-80
2022/11/26 02:34:58;;;;;;;29.27;9.15;;;;;;;;;;5056230;28;20354;-81
2022/11/26 02:37:31;;;;;;;28.58;8.63;;;;;;;;;;5058258;28;20060;-83
2022/11/26 02:39:57;;;;;;;32.05;9.63;;;;;;;;;;5056944;28;20051;-81
2022/11/26 02:42:28;;;;;;;21.23;8.75;;;;;;;;;;5055893;28;20041;-82
2022/11/26 02:44:57;;;;;;;24.55;9.18;;;;;;;;;;5038050;28;20057;-82
2022/11/26 02:47:26;;;;;;;20.48;9.23;;;;;;;;;;5035531;28;20213;-83
2022/11/26 02:49:53;;;;;;;26.33;10.18;;;;;;;;;;5036282;28;20041;-82
2022/11/26 02:52:20;;;;;;;26.23;10.65;;;;;;;;;;5039815;28;20050;-82
2022/11/26 02:54:48;;;;;;;28.50;11.48;;;;;;;;;;5048090;28;20045;-82
2022/11/26 02:57:17;;;;;;;26.92;11.65;;;;;;;;;;5045086;28;20124;-82
2022/11/26 02:59:44;;;;;;;28.65;10.02;;;;;;;;;;5047354;28;20045;-81
2022/11/26 03:02:13;;;;;;;26.33;10.25;;;;;;;;;;5043681;28;20373;-80
2022/11/26 03:04:42;;;;;;;27.77;10.80;;;;;;;;;;5033572;28;20080;-81
2022/11/26 03:07:09;;;;;;;23.98;10.90;;;;;;;;;;5034763;28;20045;-82
2022/11/26 03:09:50;;;;;;;28.13;11.13;;;;;;;;;;5033592;28;20049;-82
2022/11/26 03:12:16;;;;;;;23.42;9.50;;;;;;;;;;5034188;28;20103;-80
2022/11/26 03:14:43;;;;;;;26.00;9.55;;;;;;;;;;5035344;28;20053;-82
2022/11/26 03:17:09;;;;;;;30.98;9.05;;;;;;;;;;5036271;28;20308;-82
2022/11/26 03:19:38;;;;;;;21.25;10.25;;;;;;;;;;5032953;28;20057;-83
2022/11/26 03:22:05;;;;;;;25.40;10.00;;;;;;;;;;5033693;28;20049;-82
2022/11/26 03:24:31;;;;;;;29.75;10.95;;;;;;;;;;5034084;28;20181;-82
2022/11/26 03:26:58;;;;;;;24.38;10.68;;;;;;;;;;5051006;28;20052;-82
2022/11/26 03:29:24;;;;;;;24.35;10.20;;;;;;;;;;5035544;28;20475;-81
2022/11/26 03:31:51;;;;;;;26.25;10.32;;;;;;;;;;5054386;28;20053;-80
2022/11/26 03:34:17;;;;;;;23.83;10.80;;;;;;;;;;5053082;28;20057;-82
2022/11/26 03:36:44;;;;;;;25.48;10.60;;;;;;;;;;5054967;28;20139;-80
2022/11/26 03:39:10;;;;;;;25.67;10.32;;;;;;;;;;5054515;28;20521;-81
2022/11/26 03:41:36;;;;;;;23.30;9.98;;;;;;;;;;5054018;28;20525;-80
2022/11/26 03:44:03;;;;;;;26.15;10.18;;;;;;;;;;5052321;28;20041;-81
2022/11/26 03:46:29;;;;;;;24.85;9.85;;;;;;;;;;5052449;28;20059;-80
2022/11/26 03:48:56;;;;;;;30.63;9.82;;;;;;;;;;5051864;28;20053;-81
2022/11/26 03:51:22;;;;;;;24.98;10.25;;;;;;;;;;5052311;28;20049;-81
2022/11/26 03:53:48;;;;;;;27.27;10.32;;;;;;;;;;5052499;28;20473;-82
2022/11/26 03:56:15;;;;;;;25.25;10.57;;;;;;;;;;5051830;28;20132;-82
2022/11/26 03:58:41;;;;;;;26.25;10.20;;;;;;;;;;5053036;28;20053;-81
2022/11/26 04:01:08;;;;;;;26.83;9.65;;;;;;;;;;5052097;28;20553;-81
2022/11/26 04:03:35;;;;;;;31.08;10.63;;;;;;;;;;5050709;28;20049;-81
2022/11/26 04:06:01;;;;;;;27.70;9.68;;;;;;;;;;5052151;28;20520;-81
2022/11/26 04:08:28;;;;;;;26.70;9.90;;;;;;;;;;5054207;28;20060;-80
2022/11/26 04:10:54;;;;;;;28.30;10.27;;;;;;;;;;5052598;28;20176;-82
2022/11/26 04:13:20;;;;;;;28.75;10.25;;;;;;;;;;5053711;28;20071;-80
2022/11/26 04:15:47;;;;;;;34.40;11.05;;;;;;;;;;5055306;28;20095;-82
2022/11/26 04:18:14;;;;;;;30.75;11.02;;;;;;;;;;5056098;28;20056;-80
2022/11/26 04:20:40;;;;;;;26.52;10.75;;;;;;;;;;5054652;28;20301;-82
2022/11/26 04:23:06;;;;;;;26.65;11.60;;;;;;;;;;5053103;28;20041;-82
2022/11/26 04:25:33;;;;;;;33.20;12.00;;;;;;;;;;5055618;28;20048;-82
2022/11/26 04:27:59;;;;;;;32.22;11.70;;;;;;;;;;5058822;28;20049;-81
2022/11/26 04:30:26;;;;;;;33.78;12.27;;;;;;;;;;5053971;28;20541;-82
2022/11/26 04:32:55;;;;;;;34.03;12.52;;;;;;;;;;5054466;28;20106;-81
2022/11/26 04:35:21;;;;;;;31.05;11.80;;;;;;;;;;5053231;28;20056;-81
2022/11/26 04:37:48;;;;;;;27.17;11.25;;;;;;;;;;5054382;28;20049;-80
2022/11/26 04:40:14;;;;;;;34.10;12.77;;;;;;;;;;5053845;28;20048;-79
2022/11/26 04:42:40;;;;;;;30.10;12.63;;;;;;;;;;5054425;28;20051;-81
2022/11/26 04:45:07;;;;;;;30.52;12.38;;;;;;;;;;5051530;28;20064;-81
2022/11/26 04:47:34;;;;;;;28.83;13.10;;;;;;;;;;5054333;28;20056;-81
2022/11/26 04:50:08;;;;;;;29.35;11.90;;;;;;;;;;5053351;28;20052;-82
2022/11/26 04:52:34;;;;;;;31.63;12.82;;;;;;;;;;5055914;28;20441;-80
2022/11/26 04:55:00;;;;;;;32.45;13.15;;;;;;;;;;5054148;28;20056;-81
2022/11/26 04:57:27;;;;;;;35.45;14.35;;;;;;;;;;5058458;28;20064;-82
2022/11/26 04:59:53;;;;;;;43.45;15.05;;;;;;;;;;5057777;28;20103;-81
2022/11/26 05:02:19;;;;;;;36.70;13.65;;;;;;;;;;5056918;28;20053;-80
2022/11/26 05:04:47;;;;;;;36.22;13.93;;;;;;;;;;5057291;28;20052;-81
2022/11/26 05:07:13;;;;;;;38.28;14.68;;;;;;;;;;5058499;28;20059;-84
2022/11/26 05:09:40;;;;;;;32.58;14.52;;;;;;;;;;5056556;28;20108;-82
2022/11/26 05:12:06;;;;;;;39.10;15.75;;;;;;;;;;5056399;28;20397;-81
2022/11/26 05:14:33;;;;;;;35.03;14.80;;;;;;;;;;5056541;28;20049;-80
2022/11/26 05:16:59;;;;;;;50.28;16.98;;;;;;;;;;5057295;28;20052;-82
2022/11/26 05:19:26;;;;;;;46.83;19.80;;;;;;;;;;5057493;28;20045;-82
2022/11/26 05:21:52;;;;;;;52.83;23.02;;;;;;;;;;5058903;28;20045;-82
2022/11/26 05:24:18;;;;;;;62.17;25.50;;;;;;;;;;5063980;28;20049;-84
2022/11/26 05:26:45;;;;;;;58.97;24.90;;;;;;;;;;5064679;28;20071;-83
2022/11/26 05:29:11;;;;;;;60.55;23.55;;;;;;;;;;5052154;28;20098;-82
2022/11/26 05:31:40;;;;;;;55.63;24.70;;;;;;;;;;5050131;28;20128;-82
2022/11/26 05:34:07;;;;;;;57.65;26.02;;;;;;;;;;5051278;28;20049;-81
2022/11/26 05:36:33;;;;;;;62.35;29.13;;;;;;;;;;5052596;28;20051;-82
2022/11/26 05:39:00;;;;;;;57.90;27.13;;;;;;;;;;5053242;28;20097;-81
2022/11/26 05:41:26;;;;;;;61.10;26.63;;;;;;;;;;5053762;28;20048;-81
2022/11/26 05:43:52;;;;;;;59.42;26.40;;;;;;;;;;5052683;28;20425;-81
2022/11/26 05:46:19;;;;;;;54.03;25.48;;;;;;;;;;5053375;28;20084;-81
2022/11/26 05:48:45;;;;;;;58.03;26.13;;;;;;;;;;5053713;28;20045;-82
2022/11/26 05:51:12;;;;;;;62.85;26.52;;;;;;;;;;5054959;28;20131;-82
2022/11/26 05:53:38;;;;;;;66.03;29.63;;;;;;;;;;5054642;28;20132;-83
2022/11/26 05:56:05;;;;;;;61.60;29.45;;;;;;;;;;5055282;28;20099;-83
2022/11/26 05:58:31;;;;;;;67.10;30.75;;;;;;;;;;5054175;28;20425;-82
2022/11/26 06:00:58;;;;;;;66.18;28.95;;;;;;;;;;5054352;28;20068;-81
2022/11/26 06:03:25;;;;;;;66.13;29.70;;;;;;;;;;5053682;28;20210;-81
2022/11/26 06:05:52;;;;;;;67.88;29.08;;;;;;;;;;5055338;28;20041;-83
2022/11/26 06:08:18;;;;;;;67.78;30.15;;;;;;;;;;5054716;28;20049;-81
2022/11/26 06:10:45;;;;;;;67.20;28.90;;;;;;;;;;5054536;28;20049;-81
2022/11/26 06:13:11;;;;;;;68.25;28.63;;;;;;;;;;5055384;28;20059;-82
2022/11/26 06:15:38;;;;;;;56.72;24.58;;;;;;;;;;5055771;28;20044;-83
2022/11/26 06:18:04;;;;;;;52.33;24.73;;;;;;;;;;5053997;28;20675;-81
2022/11/26 06:20:30;;;;;;;65.18;26.52;;;;;;;;;;5051320;28;20049;-81
2022/11/26 06:22:57;;;;;;;54.42;26.25;;;;;;;;;;5053616;28;20079;-81
2022/11/26 06:25:23;;;;;;;60.63;26.08;;;;;;;;;;5059480;28;20424;-80
2022/11/26 06:27:51;;;;;;;64.72;25.40;;;;;;;;;;5046836;28;20060;-82
2022/11/26 06:30:17;;;;;;;64.97;25.95;;;;;;;;;;5054686;28;20289;-80
2022/11/26 06:32:43;;;;;;;58.92;26.48;;;;;;;;;;5050047;28;20072;-80
2022/11/26 06:35:10;;;;;;;66.72;26.48;;;;;;;;;;5058165;28;20079;-78
2022/11/26 06:37:36;;;;;;;58.97;23.70;;;;;;;;;;5055218;28;20053;-77
2022/11/26 06:40:03;;;;;;;51.80;22.17;;;;;;;;;;5057434;28;20273;-80
2022/11/26 06:42:29;;;;;;;53.08;19.73;;;;;;;;;;5055463;28;20084;-79
2022/11/26 06:44:56;;;;;;;49.33;19.85;;;;;;;;;;5057402;28;20121;-78
2022/11/26 06:47:25;;;;;;;51.85;18.35;;;;;;;;;;5054845;28;20132;-78
2022/11/26 06:49:52;;;;;;;46.63;17.77;;;;;;;;;;5041125;28;20344;-77
2022/11/26 06:52:18;;;;;;;45.38;18.08;;;;;;;;;;5045985;28;20056;-80
2022/11/26 06:54:44;;;;;;;46.08;18.40;;;;;;;;;;5042731;28;20079;-82
2022/11/26 06:57:11;;;;;;;49.05;17.52;;;;;;;;;;5049391;28;20505;-82
2022/11/26 06:59:37;;;;;;;42.15;17.58;;;;;;;;;;5052696;28;20128;-83
2022/11/26 07:02:04;;;;;;;46.13;17.42;;;;;;;;;;5031090;28;20059;-83
2022/11/26 07:04:30;;;;;;;41.58;17.02;;;;;;;;;;5029245;28;20042;-80
2022/11/26 07:06:57;;;;;;;43.10;16.98;;;;;;;;;;5039565;28;20497;-80
2022/11/26 07:09:23;;;;;;;52.30;17.90;;;;;;;;;;5052535;28;20057;-81
2022/11/26 07:11:50;;;;;;;45.97;17.58;;;;;;;;;;5053515;28;20061;-81
2022/11/26 07:14:16;;;;;;;41.10;17.20;;;;;;;;;;5045758;28;20135;-80
2022/11/26 07:16:43;;;;;;;42.75;16.02;;;;;;;;;;5038045;28;20059;-81
2022/11/26 07:19:11;;;;;;;49.50;16.92;;;;;;;;;;5038337;28;20049;-82
2022/11/26 07:21:38;;;;;;;43.95;16.73;;;;;;;;;;5047395;28;20060;-81
2022/11/26 07:24:05;;;;;;;54.75;18.48;;;;;;;;;;5049075;28;20045;-80
2022/11/26 07:26:31;;;;;;;40.10;16.60;;;;;;;;;;5047564;28;20048;-81
2022/11/26 07:28:58;;;;;;;42.72;16.75;;;;;;;;;;5049639;28;20069;-80
2022/11/26 07:31:24;;;;;;;46.03;17.42;;;;;;;;;;5038962;28;20056;-81
2022/11/26 07:33:50;;;;;;;48.38;17.23;;;;;;;;;;5042144;28;20061;-82
2022/11/26 07:36:24;;;;;;;49.63;17.23;;;;;;;;;;5048812;28;20533;-82
2022/11/26 07:38:58;;;;;;;41.35;16.52;;;;;;;;;;5049041;28;20115;-81
2022/11/26 07:41:25;;;;;;;48.58;17.15;;;;;;;;;;5049468;28;20268;-82
2022/11/26 07:43:51;;;;;;;45.53;17.45;;;;;;;;;;5048375;28;20586;-81
2022/11/26 07:46:19;;;;;;;50.47;17.48;;;;;;;;;;5051701;28;20075;-82
2022/11/26 07:48:46;;;;;;;37.28;16.52;;;;;;;;;;5046572;28;20053;-81
2022/11/26 07:51:15;;;;;;;53.00;17.42;;;;;;;;;;5030649;28;20053;-82
2022/11/26 07:53:41;;;;;;;60.28;17.40;;;;;;;;;;5048626;28;20501;-82
2022/11/26 07:56:08;;;;;;;38.00;16.55;;;;;;;;;;5045901;28;20430;-81
2022/11/26 07:58:34;;;;;;;46.95;16.65;;;;;;;;;;5036116;28;20425;-82
2022/11/26 08:01:11;;;;;;;44.42;16.80;;;;;;;;;;5043260;28;20493;-81
2022/11/26 08:03:39;;;;;;;44.28;17.95;;;;;;;;;;5027582;28;20053;-82
2022/11/26 08:06:09;;;;;;;47.65;19.25;;;;;;;;;;5031886;28;20053;-80
2022/11/26 08:08:35;;;;;;;50.00;18.10;;;;;;;;;;5041576;28;20045;-82
2022/11/26 08:11:02;;;;;;;42.60;17.88;;;;;;;;;;5050410;28;20463;-80
2022/11/26 08:13:29;;;;;;;50.95;16.63;;;;;;;;;;5050073;28;20076;-82
2022/11/26 08:15:55;;;;;;;40.58;15.68;;;;;;;;;;5049121;28;20045;-81
2022/11/26 08:18:22;;;;;;;31.77;13.77;;;;;;;;;;5051838;28;20049;-78
2022/11/26 08:20:55;;;;;;;26.75;11.90;;;;;;;;;;5051232;28;20494;-83
2022/11/26 08:23:22;;;;;;;27.55;11.88;;;;;;;;;;5045473;28;20063;-81
2022/11/26 08:25:49;;;;;;;28.42;10.35;;;;;;;;;;5047644;28;20059;-80
2022/11/26 08:28:35;;;;;;;27.95;9.90;;;;;;;;;;5039677;28;20045;-82
2022/11/26 08:31:06;;;;;;;26.83;10.35;;;;;;;;;;5049419;28;20059;-82
2022/11/26 08:33:33;;;;;;;25.13;10.60;;;;;;;;;;5047424;28;20546;-80
2022/11/26 08:36:00;;;;;;;22.60;9.68;;;;;;;;;;5046983;28;20052;-79
2022/11/26 08:38:34;;;;;;;28.67;10.20;;;;;;;;;;5048508;28;20067;-80
2022/11/26 08:41:01;;;;;;;29.60;11.77;;;;;;;;;;5046118;28;20063;-81
2022/11/26 08:43:27;;;;;;;24.70;10.38;;;;;;;;;;5045190;28;20055;-82
2022/11/26 08:46:14;;;;;;;33.53;12.02;;;;;;;;;;5036624;28;20571;-79
2022/11/26 08:48:41;;;;;;;32.15;11.32;;;;;;;;;;5044068;28;20658;-83
2022/11/26 08:51:09;;;;;;;24.08;8.93;;;;;;;;;;5056782;28;20049;-80
2022/11/26 08:53:36;;;;;;;23.67;8.68;;;;;;;;;;5066451;28;20842;-83
2022/11/26 08:56:06;;;;;;;18.08;7.43;;;;;;;;;;5061435;28;20025;-80
2022/11/26 08:58:34;;;;;;;22.75;7.45;;;;;;;;;;5065593;28;20055;-81
2022/11/26 09:01:10;;;;;;;16.65;6.90;;;;;;;;;;5058708;28;20051;-81
2022/11/26 09:03:37;;;;;;;15.40;7.25;;;;;;;;;;5046201;28;20052;-81
2022/11/26 09:06:05;;;;;;;26.27;7.55;;;;;;;;;;5048445;28;20409;-82
2022/11/26 09:08:43;;;;;;;18.88;8.65;;;;;;;;;;5036223;28;20763;-80
2022/11/26 09:11:10;;;;;;;25.35;8.10;;;;;;;;;;5028115;28;20393;-80
2022/11/26 09:13:37;;;;;;;20.17;7.88;;;;;;;;;;5033384;28;20056;-80
2022/11/26 09:16:03;;;;;;;19.70;8.18;;;;;;;;;;5047195;28;20063;-81
2022/11/26 09:18:30;;;;;;;19.45;6.32;;;;;;;;;;5045027;28;20822;-78
2022/11/26 09:21:00;;;;;;;20.52;6.85;;;;;;;;;;5044643;28;20044;-81
2022/11/26 09:23:27;;;;;;;20.88;6.40;;;;;;;;;;5047120;28;20041;-80
2022/11/26 09:25:53;;;;;;;15.00;5.00;;;;;;;;;;5043135;28;20049;-81
2022/11/26 09:28:20;;;;;;;16.15;6.10;;;;;;;;;;5062678;28;20048;-81
2022/11/26 09:30:46;;;;;;;17.70;6.20;;;;;;;;;;5048523;28;20051;-83
2022/11/26 09:33:13;;;;;;;17.50;6.03;;;;;;;;;;5051165;28;20057;-82
2022/11/26 09:35:39;;;;;;;17.13;5.80;;;;;;;;;;5045740;28;20048;-81
2022/11/26 09:38:05;;;;;;;15.98;5.50;;;;;;;;;;5044771;28;20056;-81
2022/11/26 09:40:58;;;;;;;15.35;5.63;;;;;;;;;;5046491;28;20053;-81
2022/11/26 09:43:45;;;;;;;15.70;5.38;;;;;;;;;;5033441;28;20044;-81
2022/11/26 09:46:16;;;;;;;15.23;4.65;;;;;;;;;;5050827;28;20044;-81
2022/11/26 09:48:43;;;;;;;13.60;4.45;;;;;;;;;;5044791;28;20049;-80
2022/11/26 09:51:11;;;;;;;19.15;5.07;;;;;;;;;;5047092;28;20528;-81
2022/11/26 09:53:41;;;;;;;17.52;4.60;;;;;;;;;;5050150;28;20053;-83
2022/11/26 09:56:14;;;;;;;15.35;4.53;;;;;;;;;;5040169;28;20052;-82
2022/11/26 09:58:44;;;;;;;17.95;4.75;;;;;;;;;;5051827;28;20747;-83
2022/11/26 10:01:16;;;;;;;17.98;4.85;;;;;;;;;;5034669;28;20049;-84
2022/11/26 10:03:42;;;;;;;15.60;4.38;;;;;;;;;;5050535;28;20049;-84
2022/11/26 10:06:27;;;;;;;17.08;4.60;;;;;;;;;;5050056;28;20079;-83
2022/11/26 10:08:57;;;;;;;13.68;4.65;;;;;;;;;;5052974;28;20049;-84
2022/11/26 10:11:32;;;;;;;17.05;4.55;;;;;;;;;;5050074;28;20049;-82
2022/11/26 10:13:59;;;;;;;;;;;;;;;;;;5048583;28;20052;-80
2022/11/26 10:16:25;;;;;;;;;;;;;;;;;;5050161;28;20038;-81
2022/11/26 10:18:54;;;;;;;11.77;3.88;;;;;;;;;;5042144;28;20032;-80
2022/11/26 10:21:38;;;;;;;16.05;4.35;;;;;;;;;;5044148;28;20045;-82
2022/11/26 10:24:25;;;;;;;18.52;4.40;;;;;;;;;;5048354;28;20489;-80
2022/11/26 10:26:52;;;;;;;14.35;3.97;;;;;;;;;;5046760;28;20056;-81
2022/11/26 10:29:38;;;;;;;14.32;4.30;;;;;;;;;;5050509;28;20049;-82
2022/11/26 10:32:16;;;;;;;14.98;3.97;;;;;;;;;;5030350;28;20045;-81
2022/11/26 10:34:50;;;;;;;15.27;4.25;;;;;;;;;;5028209;28;20079;-81
2022/11/26 10:37:18;;;;;;;18.70;4.18;;;;;;;;;;5038280;28;20045;-79
2022/11/26 10:39:44;;;;;;;17.60;4.15;;;;;;;;;;5030125;28;20045;-81
2022/11/26 10:42:18;;;;;;;12.57;3.60;;;;;;;;;;5030672;28;20533;-80
2022/11/26 10:44:45;;;;;;;11.77;3.72;;;;;;;;;;5046053;28;20543;-81
2022/11/26 10:47:14;;;;;;;13.65;3.55;;;;;;;;;;5045970;28;20053;-82
2022/11/26 10:49:40;;;;;;;12.98;3.92;;;;;;;;;;5042299;28;20056;-81
2022/11/26 10:52:07;;;;;;;14.35;3.83;;;;;;;;;;5036084;28;20056;-82
2022/11/26 10:54:37;;;;;;;15.10;3.50;;;;;;;;;;5046745;28;20045;-82
2022/11/26 10:57:07;;;;;;;15.60;3.60;;;;;;;;;;5035489;28;20140;-80
2022/11/26 10:59:54;;;;;;;18.73;4.25;;;;;;;;;;5048538;28;20509;-84
2022/11/26 11:02:31;;;;;;;14.98;3.50;;;;;;;;;;5048536;28;20059;-82
2022/11/26 11:05:01;;;;;;;23.60;4.55;;;;;;;;;;5028838;28;20053;-82
2022/11/26 11:07:30;;;;;;;15.55;4.03;;;;;;;;;;5037653;28;20055;-80
2022/11/26 11:10:01;;;;;;;14.50;4.07;;;;;;;;;;5030712;28;20057;-82
2022/11/26 11:12:28;;;;;;;15.25;4.40;;;;;;;;;;5037937;28;20458;-83
2022/11/26 11:14:54;;;;;;;21.00;4.70;;;;;;;;;;5037694;28;20057;-81
2022/11/26 11:17:31;;;;;;;18.17;4.82;;;;;;;;;;5036795;28;20593;-82
2022/11/26 11:19:59;;;;;;;21.58;4.97;;;;;;;;;;5048465;28;20051;-84
2022/11/26 11:22:26;;;;;;;18.58;4.65;;;;;;;;;;5048260;28;20060;-82
2022/11/26 11:24:53;;;;;;;12.48;5.20;;;;;;;;;;5049453;28;20065;-81
2022/11/26 11:27:24;;;;;;;11.82;4.05;;;;;;;;;;5041539;28;20538;-80
2022/11/26 11:29:51;;;;;;;15.10;4.43;;;;;;;;;;5044553;28;20053;-84
2022/11/26 11:32:36;;;;;;;17.45;4.40;;;;;;;;;;5044807;28;20640;-81
2022/11/26 11:35:19;;;;;;;14.25;4.88;;;;;;;;;;5029451;28;20057;-83
2022/11/26 11:37:50;;;;;;;15.18;4.00;;;;;;;;;;5039816;28;20045;-82
2022/11/26 11:40:22;;;;;;;16.02;4.20;;;;;;;;;;5038985;28;20079;-84
2022/11/26 11:42:50;;;;;;;17.17;4.72;;;;;;;;;;5045307;28;20088;-83
2022/11/26 11:45:35;;;;;;;16.30;5.68;;;;;;;;;;5041328;28;20055;-81
2022/11/26 11:48:20;;;;;;;21.23;5.50;;;;;;;;;;5047451;28;20524;-82
2022/11/26 11:50:53;;;;;;;17.48;5.88;;;;;;;;;;5049926;28;20112;-82
2022/11/26 11:53:34;;;;;;;22.88;5.50;;;;;;;;;;5050226;28;20049;-78
2022/11/26 11:56:01;;;;;;;22.95;6.28;;;;;;;;;;5051672;28;20041;-81
2022/11/26 11:58:47;;;;;;;16.10;5.93;;;;;;;;;;5053639;28;20060;-83
2022/11/26 12:01:32;;;;;;;16.53;5.30;;;;;;;;;;5054820;28;20063;-82
2022/11/26 12:04:17;;;;;;;19.33;5.03;;;;;;;;;;5050363;28;20291;-80
2022/11/26 12:06:53;;;;;;;14.48;4.63;;;;;;;;;;5060904;28;20360;-82
2022/11/26 12:09:26;;;;;;;15.25;5.20;;;;;;;;;;5057043;28;20067;-83
2022/11/26 12:11:55;;;;;;;14.98;4.50;;;;;;;;;;5041202;28;20501;-78
2022/11/26 12:14:24;;;;;;;9.05;3.95;;;;;;;;;;5054792;28;20055;-82
2022/11/26 12:16:53;;;;;;;15.15;4.78;;;;;;;;;;5053844;28;20060;-80
2022/11/26 12:19:23;;;;;;;14.13;4.53;;;;;;;;;;5058074;28;20049;-81
2022/11/26 12:21:52;;;;;;;14.65;3.92;;;;;;;;;;5052858;28;20057;-84
2022/11/26 12:24:18;;;;;;;17.83;4.65;;;;;;;;;;5037790;28;20053;-83
2022/11/26 12:26:51;;;;;;;18.98;4.35;;;;;;;;;;5032012;28;20045;-80
2022/11/26 12:29:37;;;;;;;15.43;4.63;;;;;;;;;;5048097;28;20059;-82
2022/11/26 12:32:18;;;;;;;17.88;5.07;;;;;;;;;;5044606;28;20053;-82
2022/11/26 12:34:48;;;;;;;16.23;5.00;;;;;;;;;;5045685;28;20053;-83
2022/11/26 12:37:18;;;;;;;19.38;4.70;;;;;;;;;;5030933;28;20055;-82
2022/11/26 12:39:44;;;;;;;16.58;4.72;;;;;;;;;;5031575;28;20100;-82
2022/11/26 12:42:25;;;;;;;18.88;5.28;;;;;;;;;;5029966;28;20063;-81
2022/11/26 12:44:52;;;;;;;18.30;5.03;;;;;;;;;;5030487;28;20751;-82
2022/11/26 12:47:23;;;;;;;23.10;5.00;;;;;;;;;;5030899;28;20057;-83
2022/11/26 12:49:49;;;;;;;20.45;5.47;;;;;;;;;;5030347;28;20052;-81
2022/11/26 12:52:34;;;;;;;17.08;4.95;;;;;;;;;;5030003;28;20050;-82
2022/11/26 12:55:01;;;;;;;19.08;5.53;;;;;;;;;;5030446;28;20054;-81
2022/11/26 12:57:30;;;;;;;17.70;5.53;;;;;;;;;;5031347;28;20548;-84
2022/11/26 12:59:57;;;;;;;24.55;5.38;;;;;;;;;;5039421;28;20059;-82
2022/11/26 13:02:28;;;;;;;22.90;5.13;;;;;;;;;;5049152;28;20049;-82
2022/11/26 13:04:55;;;;;;;13.95;4.25;;;;;;;;;;5050126;28;20045;-82
2022/11/26 13:07:34;;;;;;;20.75;4.30;;;;;;;;;;5051055;28;20059;-82
2022/11/26 13:10:00;;;;;;;23.25;5.20;;;;;;;;;;5051199;28;20475;-81
2022/11/26 13:12:55;;;;;;;15.88;4.45;;;;;;;;;;5050554;28;20052;-80
2022/11/26 13:15:21;;;;;;;17.73;4.35;;;;;;;;;;5051024;28;20049;-81
2022/11/26 13:17:49;;;;;;;19.10;4.72;;;;;;;;;;5053427;28;20045;-83
2022/11/26 13:20:31;;;;;;;17.67;5.10;;;;;;;;;;5052352;28;20059;-83
2022/11/26 13:22:57;;;;;;;17.10;4.53;;;;;;;;;;5055805;28;20078;-82
2022/11/26 13:25:33;;;;;;;20.27;4.90;;;;;;;;;;5056563;28;20076;-83
2022/11/26 13:27:59;;;;;;;15.95;4.13;;;;;;;;;;5055537;28;20416;-82
2022/11/26 13:30:34;;;;;;;17.42;4.38;;;;;;;;;;5055137;28;20041;-84
2022/11/26 13:33:11;;;;;;;21.73;4.20;;;;;;;;;;5055037;28;20049;-83
2022/11/26 13:35:57;;;;;;;14.50;4.25;;;;;;;;;;5054445;28;20061;-84
2022/11/26 13:38:27;;;;;;;17.60;4.03;;;;;;;;;;5056488;28;20049;-82
2022/11/26 13:40:58;;;;;;;19.92;4.05;;;;;;;;;;5054008;28;20081;-82
2022/11/26 13:43:48;;;;;;;18.60;3.95;;;;;;;;;;5054730;28;20052;-82
2022/11/26 13:46:22;;;;;;;9.00;3.10;;;;;;;;;;5053735;28;20045;-83
2022/11/26 13:48:59;;;;;;;18.02;3.70;;;;;;;;;;5053061;28;20577;-83
2022/11/26 13:51:37;;;;;;;18.92;3.70;;;;;;;;;;5053986;28;20052;-82
2022/11/26 13:54:07;;;;;;;16.65;3.72;;;;;;;;;;5053443;28;20060;-83
2022/11/26 13:56:35;;;;;;;11.02;3.17;;;;;;;;;;5053280;28;20517;-82
2022/11/26 13:59:04;;;;;;;18.25;4.25;;;;;;;;;;5042588;28;20330;-81
2022/11/26 14:01:32;;;;;;;14.52;3.55;;;;;;;;;;5043598;28;20068;-81
2022/11/26 14:03:59;;;;;;;14.85;3.47;;;;;;;;;;5044739;28;20052;-80
2022/11/26 14:06:26;;;;;;;20.20;3.88;;;;;;;;;;5050630;28;20068;-83
2022/11/26 14:08:55;;;;;;;18.40;4.07;;;;;;;;;;5052372;28;20053;-83
2022/11/26 14:11:41;;;;;;;17.45;3.95;;;;;;;;;;5051013;28;20053;-83
2022/11/26 14:14:23;;;;;;;18.40;3.95;;;;;;;;;;5052995;28;20053;-81
2022/11/26 14:17:12;;;;;;;16.60;4.55;;;;;;;;;;5054121;28;20056;-83
2022/11/26 14:19:38;;;;;;;16.15;3.90;;;;;;;;;;5035541;28;20053;-82
2022/11/26 14:22:06;;;;;;;14.32;4.32;;;;;;;;;;5050178;28;20045;-83
2022/11/26 14:24:48;;;;;;;16.67;4.40;;;;;;;;;;5053311;28;20493;-82
2022/11/26 14:27:18;;;;;;;26.30;5.13;;;;;;;;;;5054685;28;20045;-83
2022/11/26 14:29:46;;;;;;;17.67;4.57;;;;;;;;;;5055110;28;20056;-81
2022/11/26 14:32:17;;;;;;;23.27;5.18;;;;;;;;;;5054960;28;20053;-81
2022/11/26 14:34:49;;;;;;;22.77;4.88;;;;;;;;;;5054180;28;20057;-82
2022/11/26 14:37:17;;;;;;;20.10;6.10;;;;;;;;;;5053621;28;20057;-83
2022/11/26 14:39:43;;;;;;;19.20;6.60;;;;;;;;;;5054691;28;20059;-82
2022/11/26 14:42:14;;;;;;;20.88;5.85;;;;;;;;;;5054198;28;20049;-84